Impacts TAF Board INFO
FOR SITUATIONAL AWARENESS. NOT TO BE USED FOR FLIGHT PLANNING PURPOSES.
IDs:

KJFK - New York/Kennedy Int, NY, US

Issued at 0941 UTC 23 May 2018
Updated at 1107 UTC 23 May 2018
Potential Impact None Slight Moderate High
Time<<24/00Z 24/01Z 24/02Z 24/03Z 24/04Z 24/05Z 24/06Z 24/07Z 24/08Z 24/09Z 24/10Z 24/11Z 24/12Z>>
Type PRVL PRVL PRVL PRVL PRVL PRVL PRVL PRVL PRVL PRVL PRVL PRVL
VIS >6 >6 >6 >6 >6 >6 >6 >6 >6 >6 >6 >6
CIG -- -- -- -- -- -- -- -- -- -- -- --
Cover FEW FEW FEW SKC SKC SKC SKC SKC SKC SKC SKC SKC
FltCat VFR VFR VFR VFR VFR VFR VFR VFR VFR VFR VFR VFR
WX -- -- -- -- -- -- -- -- -- -- -- --
WDir 280 280 280 310 310 310 310 310 310 310 310 340
WSpd 8 8 8 8 8 8 8 8 8 8 8 6
WGst -- -- -- -- -- -- -- -- -- -- -- --

Raw TAF
KJFK 230941Z 2310/2412 VRB03KT P6SM VCSH OVC008
  FM231100 29005KT P6SM BKN010
  FM231300 30006KT P6SM SCT025 SCT060
  FM231500 32010KT P6SM SCT060
  FM232300 28008KT P6SM FEW250
  FM240300 31008KT P6SM SKC
  FM241100 34006KT P6SM SKC


METAR Board
Radar Display
Forecast Discussion

FOR SITUATIONAL AWARENESS. NOT TO BE USED FOR FLIGHT PLANNING PURPOSES.